createdAt,value
2019-03-26T00:02:47.400Z,23
2019-03-26T00:07:49.967Z,24
2019-03-26T00:12:52.307Z,21
2019-03-26T00:17:54.924Z,23
2019-03-26T00:22:57.321Z,23
2019-03-26T00:27:59.718Z,22
2019-03-26T00:33:02.180Z,22
2019-03-26T00:43:07.357Z,21
2019-03-26T00:48:09.700Z,21
2019-03-26T00:53:12.036Z,21
2019-03-26T00:58:14.510Z,21
2019-03-26T01:03:17.400Z,17
2019-03-26T01:08:19.588Z,19
2019-03-26T01:13:21.893Z,20
2019-03-26T01:18:24.385Z,20
2019-03-26T01:23:26.874Z,18
2019-03-26T01:28:29.297Z,17
2019-03-26T01:33:31.779Z,16
2019-03-26T01:38:34.227Z,18
2019-03-26T01:43:36.689Z,16
2019-03-26T01:48:39.172Z,16
2019-03-26T01:53:41.602Z,18
2019-03-26T01:58:44.093Z,17
2019-03-26T02:03:46.646Z,14
2019-03-26T02:08:49.035Z,15
2019-03-26T02:13:51.476Z,17
2019-03-26T02:18:53.944Z,16
2019-03-26T02:23:56.397Z,16
2019-03-26T02:28:58.874Z,16
2019-03-26T02:34:01.402Z,14
2019-03-26T02:39:03.848Z,15
2019-03-26T02:44:06.355Z,16
2019-03-26T02:49:08.761Z,16
2019-03-26T02:54:11.286Z,16
2019-03-26T02:59:13.679Z,15
2019-03-26T03:04:16.259Z,14
2019-03-26T03:09:18.652Z,14
2019-03-26T03:14:26.195Z,14
2019-03-26T03:19:23.567Z,15
2019-03-26T03:24:26.306Z,16
2019-03-26T03:29:28.569Z,13
2019-03-26T03:34:30.916Z,13
2019-03-26T03:39:33.382Z,12
2019-03-26T03:44:35.821Z,13
2019-03-26T03:49:38.359Z,10
2019-03-26T03:54:40.756Z,12
2019-03-26T03:59:43.268Z,12
2019-03-26T04:04:45.727Z,11
2019-03-26T04:09:48.238Z,11
2019-03-26T04:14:50.934Z,12
2019-03-26T04:19:53.230Z,11
2019-03-26T04:24:55.545Z,11
2019-03-26T04:29:58.002Z,13
2019-03-26T04:35:00.543Z,15
2019-03-26T04:40:02.953Z,16
2019-03-26T04:45:05.676Z,18
2019-03-26T04:50:07.872Z,19
2019-03-26T04:55:10.412Z,22
2019-03-26T05:00:12.793Z,24
2019-03-26T05:05:15.307Z,22
2019-03-26T05:10:17.710Z,22
2019-03-26T05:15:20.474Z,24
2019-03-26T05:25:25.215Z,21
2019-03-26T05:30:27.599Z,20
2019-03-26T05:35:30.060Z,20
2019-03-26T05:40:32.581Z,17
2019-03-26T05:45:39.981Z,17
2019-03-26T05:50:42.504Z,19
2019-03-26T05:55:44.926Z,20
2019-03-26T06:00:42.378Z,21
2019-03-26T06:05:44.863Z,21
2019-03-26T06:10:47.350Z,20
2019-03-26T06:15:49.793Z,24
2019-03-26T06:20:52.225Z,22
2019-03-26T06:25:54.721Z,20
2019-03-26T06:30:57.186Z,19
2019-03-26T06:35:59.673Z,17
2019-03-26T06:41:02.102Z,15
2019-03-26T06:46:04.675Z,15
2019-03-26T06:51:07.018Z,13
2019-03-26T07:01:11.967Z,11
2019-03-26T07:06:14.435Z,10
2019-03-26T07:11:16.900Z,11
2019-03-26T07:16:19.345Z,10
2019-03-26T07:21:21.782Z,11
2019-03-26T07:26:24.231Z,10
2019-03-26T07:36:29.237Z,10
2019-03-26T07:41:31.621Z,9
2019-03-26T07:46:34.079Z,10
2019-03-26T07:51:36.529Z,10
2019-03-26T07:56:38.974Z,12
2019-03-26T08:01:41.438Z,19
2019-03-26T08:06:43.933Z,14
2019-03-26T08:11:46.392Z,12
2019-03-26T08:16:48.846Z,13
2019-03-26T08:21:51.339Z,13
2019-03-26T08:26:53.723Z,15
2019-03-26T08:31:56.467Z,13
2019-03-26T08:36:58.806Z,14
2019-03-26T08:42:01.106Z,13
2019-03-26T08:47:03.547Z,11
2019-03-26T08:52:06.018Z,9
2019-03-26T08:57:08.456Z,10
2019-03-26T09:02:11.237Z,8
2019-03-26T09:07:13.398Z,10
2019-03-26T09:12:16.085Z,9
2019-03-26T09:17:19.897Z,9
2019-03-26T09:22:20.774Z,9
2019-03-26T09:27:23.358Z,11
2019-03-26T09:32:25.815Z,9
2019-03-26T09:37:28.174Z,8
2019-03-26T09:42:30.604Z,9
2019-03-26T09:47:33.048Z,9
2019-03-26T09:52:35.518Z,9
2019-03-26T09:57:37.998Z,9
2019-03-26T10:02:42.933Z,10
2019-03-26T10:07:42.911Z,8
2019-03-26T10:12:45.332Z,8
2019-03-26T10:17:47.807Z,8
2019-03-26T10:22:50.250Z,8
2019-03-26T10:27:52.713Z,7
2019-03-26T10:32:55.174Z,7
2019-03-26T10:37:57.993Z,6
2019-03-26T10:43:00.106Z,5
2019-03-26T10:48:02.642Z,6
2019-03-26T10:53:05.000Z,7
2019-03-26T10:58:07.460Z,6
2019-03-26T11:03:09.932Z,8
2019-03-26T11:08:12.812Z,7
2019-03-26T11:13:14.866Z,8
2019-03-26T11:18:17.334Z,5
2019-03-26T11:23:19.743Z,4
2019-03-26T11:28:22.201Z,4
2019-03-26T11:33:24.731Z,4
2019-03-26T11:38:27.221Z,4
2019-03-26T11:43:29.579Z,3
2019-03-26T11:48:32.045Z,3
2019-03-26T11:53:34.546Z,3
2019-03-26T12:03:39.452Z,4
2019-03-26T12:08:42.230Z,3
2019-03-26T12:13:44.330Z,4
2019-03-26T12:18:46.776Z,3
2019-03-26T12:23:49.263Z,3
2019-03-26T12:33:54.159Z,1
2019-03-26T12:38:57.014Z,2
2019-03-26T12:43:59.065Z,2
2019-03-26T12:49:01.635Z,2
2019-03-26T12:54:04.131Z,2
2019-03-26T12:59:06.432Z,2
2019-03-26T13:14:13.804Z,1
2019-03-26T13:19:16.378Z,1
2019-03-26T13:24:18.725Z,2
2019-03-26T13:29:21.245Z,2
2019-03-26T13:34:23.721Z,2
2019-03-26T13:39:26.304Z,2
2019-03-26T13:44:28.540Z,2
2019-03-26T13:49:31.007Z,2
2019-03-26T13:54:33.465Z,2
2019-03-26T15:15:12.933Z,2
2019-03-26T15:20:15.273Z,2
2019-03-26T15:25:17.817Z,2
2019-03-26T15:30:20.172Z,2
2019-03-26T15:35:22.647Z,2
2019-03-26T15:40:25.387Z,3
2019-03-26T15:45:27.688Z,2
2019-03-26T15:50:30.031Z,3
2019-03-26T15:55:32.504Z,3
2019-03-26T16:00:35.049Z,3
2019-03-26T16:05:37.417Z,3
2019-03-26T16:10:40.163Z,3
2019-03-26T16:15:44.468Z,3
2019-03-26T16:20:44.777Z,3
2019-03-26T16:25:47.245Z,3
2019-03-26T16:30:49.744Z,2
2019-03-26T16:35:52.172Z,2
2019-03-26T16:40:54.639Z,3
2019-03-26T16:45:57.366Z,2
2019-03-26T16:50:59.616Z,3
2019-03-26T16:56:02.223Z,3
2019-03-26T17:01:04.464Z,3
2019-03-26T17:06:06.885Z,3
2019-03-26T17:11:09.356Z,3
2019-03-26T17:16:11.897Z,3
2019-03-26T17:21:14.277Z,3
2019-03-26T17:26:16.828Z,4
2019-03-26T17:31:19.209Z,3
2019-03-26T17:36:21.671Z,3
2019-03-26T17:41:24.217Z,4
2019-03-26T17:46:26.553Z,4
2019-03-26T17:51:29.004Z,4
2019-03-26T17:56:31.454Z,5
2019-03-26T18:01:33.961Z,5
2019-03-26T18:06:36.462Z,4
2019-03-26T18:11:38.951Z,4
2019-03-26T18:16:41.384Z,4
2019-03-26T18:21:51.133Z,4
2019-03-26T18:26:46.332Z,5
2019-03-26T18:31:48.806Z,5
2019-03-26T18:36:51.457Z,5
2019-03-26T18:41:53.593Z,7
2019-03-26T18:46:56.145Z,6
2019-03-26T18:51:58.558Z,6
2019-03-26T18:57:00.955Z,6
2019-03-26T19:02:03.441Z,6
2019-03-26T19:07:05.901Z,7
2019-03-26T19:12:08.342Z,7
2019-03-26T19:17:10.913Z,6
2019-03-26T19:22:13.367Z,7
2019-03-26T19:27:15.754Z,7
2019-03-26T19:32:18.236Z,8
2019-03-26T19:37:20.670Z,8
2019-03-26T19:42:23.146Z,7
2019-03-26T19:47:25.892Z,7
2019-03-26T19:52:28.057Z,5
2019-03-26T19:57:30.539Z,5
2019-03-26T20:02:32.982Z,6
2019-03-26T20:07:35.468Z,7
2019-03-26T20:12:37.983Z,6
2019-03-26T20:17:40.506Z,6
2019-03-26T20:22:42.877Z,5
2019-03-26T20:27:45.303Z,5
2019-03-26T20:32:47.765Z,4
2019-03-26T20:37:50.223Z,5
2019-03-26T20:42:52.701Z,6
2019-03-26T20:47:55.457Z,7
2019-03-26T20:52:57.606Z,8
2019-03-26T20:58:00.076Z,10
2019-03-26T21:03:02.563Z,8
2019-03-26T21:08:05.016Z,8
2019-03-26T21:13:07.524Z,8
2019-03-26T21:18:10.330Z,8
2019-03-26T21:23:12.398Z,8
2019-03-26T21:28:14.862Z,7
2019-03-26T21:33:17.366Z,8
2019-03-26T21:38:19.789Z,8
2019-03-26T21:43:22.248Z,9
2019-03-26T21:48:24.736Z,10
2019-03-26T21:53:27.209Z,9
2019-03-26T21:58:29.626Z,10
2019-03-26T22:03:32.151Z,9
2019-03-26T22:08:34.570Z,9
2019-03-26T22:13:37.037Z,7
2019-03-26T22:18:39.628Z,9
2019-03-26T22:23:41.971Z,9
2019-03-26T22:28:44.407Z,12
2019-03-26T22:33:46.921Z,12
2019-03-26T22:38:49.364Z,12
2019-03-26T22:43:54.912Z,13
2019-03-26T22:48:54.394Z,13
2019-03-26T22:53:56.761Z,13
2019-03-26T22:58:59.200Z,15
2019-03-26T23:04:01.660Z,13
2019-03-26T23:09:04.198Z,11
2019-03-26T23:14:06.565Z,13
2019-03-26T23:19:09.136Z,12
2019-03-26T23:24:11.500Z,12
2019-03-26T23:29:13.953Z,13
2019-03-26T23:34:16.790Z,13
2019-03-26T23:39:18.895Z,16
2019-03-26T23:44:25.941Z,14
2019-03-26T23:49:23.901Z,13
2019-03-26T23:54:26.288Z,15
2019-03-26T23:59:28.743Z,13
